アスタナ国際空港の過去48時間の天気

アスタナ国際空港 (Astana)

現在時刻: 9/28 13:32 +05 (9/28 08:32 UTC) 以下の時間は現地時間です。

過去48時間のMETAR気象情報
時間 風向 風速(m/s) 視程 気温(℃) 湿度(%) 気圧(hPa) 天気現象
28 13:00 北北西 3 10km以上 13 41 1030
28 12:30 4 10km以上 13 41 1030
28 12:00 北北西 3 10km以上 13 41 1030
28 11:30 北西 3 10km以上 12 44 1030
28 11:00 北北西 3 10km以上 12 47 1030
28 10:30 西北西 2 10km以上 11 50 1030
28 10:00 西 2 10km以上 11 50 1031
28 09:30 西北西 2 10km以上 9 62 1031
28 09:00 不定 1 8000m 7 70 1031
28 08:30 不定 1 5000m 6 70 1031 もや
28 08:00 西 1 2100m 4 81 1031 もや
28 07:30 不定 1 1500m 3 81 1031 もや
28 07:00 西南西 2 1200m -1 93 1031 もや
28 06:52 西 2 1500m 0 93 1030 もや
28 06:30 西 2 250m 0 93 1031 地霧
28 06:00 西南西 2 900m -2 100 1031 地霧
28 05:30 西南西 2 2000m -2 93 1031 もや
28 05:00 西 2 1000m -1 100 1031 もや
28 04:30 西 1 1500m -1 93 1031 もや
28 04:00 西北西 1 3700m -1 86 1031 もや
28 03:30 西 1 3800m -1 93 1031 もや
28 03:00 西 1 3000m 1 86 1030 もや
28 02:30 静穏 0 4500m 2 81 1030 もや
28 02:00 静穏 0 6000m 2 87 1031
28 01:30 静穏 0 6000m 2 87 1031
28 01:00 北北東 1 10km以上 2 87 1031
28 00:30 不定 1 10km以上 2 87 1031
28 00:00 2 10km以上 4 75 1031
27 23:30 静穏 0 10km以上 3 81 1031
27 23:00 静穏 0 8000m 3 81 1031
27 22:30 東北東 1 10km以上 3 81 1031
27 22:00 静穏 0 10km以上 4 75 1031
27 21:30 北東 1 10km以上 5 70 1031
27 21:00 北東 2 10km以上 6 65 1031
27 20:30 北北東 2 10km以上 7 61 1031
27 20:00 北北東 1 10km以上 7 61 1031
27 19:30 北北東 2 10km以上 7 61 1031
27 19:00 北東 3 10km以上 7 61 1031
27 18:30 北東 3 10km以上 8 57 1031
27 18:00 東北東 3 10km以上 9 53 1031
27 17:30 北東 4 10km以上 10 50 1031
27 17:00 東北東 4 10km以上 11 43 1031
27 16:30 北東 4 10km以上 12 38 1031
27 16:00 北東 5 10km以上 11 47 1031
27 15:30 北北東 4 10km以上 11 47 1031
27 15:00 北東 5 10km以上 12 44 1031
27 14:30 北東 5 10km以上 12 41 1031
27 14:00 北北東 5 10km以上 11 43 1031
27 13:30 5 10km以上 12 44 1031
27 13:00 北東 6 10km以上 12 44 1032
27 12:30 北北東 5 10km以上 11 50 1032
27 12:00 6 10km以上 12 47 1032
27 11:30 北北東 5 10km以上 11 50 1032
27 11:00 北東 5 10km以上 11 47 1032
27 10:30 北東 5 10km以上 10 54 1032
27 10:00 北東 3 10km以上 10 62 1032
27 09:30 北北東 2 10km以上 8 71 1032
27 09:00 北東 2 10km以上 7 70 1032
27 08:30 北東 2 10km以上 5 81 1032
27 08:00 北北東 3 10km以上 4 87 1032
27 07:30 北東 2 10km以上 2 93 1032
27 07:00 不定 1 10km以上 1 86 1032
27 06:30 北東 1 10km以上 2 87 1031
27 06:00 不定 1 9000m 2 93 1031
27 05:30 不定 1 9000m 2 93 1031
27 05:00 不定 1 10km以上 2 93 1031
27 04:30 不定 1 10km以上 1 93 1031
27 04:00 北北東 2 10km以上 1 93 1031
27 03:30 北北東 3 10km以上 3 87 1031
27 03:00 北北東 2 10km以上 2 93 1031
27 02:30 北北東 3 10km以上 3 87 1031
27 02:00 3 10km以上 4 87 1031
27 01:30 北北東 3 10km以上 4 87 1031
27 01:00 北北東 4 10km以上 4 87 1031
27 00:30 北北東 3 10km以上 4 87 1031
27 00:00 北北東 3 10km以上 4 87 1031
26 23:30 北北東 3 9000m 4 87 1031
26 23:00 北北東 4 8000m 5 81 1031
26 22:30 北北東 3 5000m 5 81 1030 もや
26 22:00 北北東 2 5000m 5 81 1030 もや
26 21:30 不定 1 10km以上 4 87 1030
26 21:00 静穏 0 9000m 5 81 1030
26 20:30 北東 1 10km以上 5 81 1030
26 20:00 北北東 1 10km以上 7 76 1030
26 19:30 北北東 1 10km以上 7 76 1030
26 19:00 北東 3 10km以上 8 66 1031
26 18:30 北東 3 10km以上 9 66 1031
26 18:00 北東 3 10km以上 10 58 1030
26 17:30 北東 4 10km以上 11 54 1030
26 17:00 北東 5 10km以上 11 54 1030
26 16:30 北東 5 10km以上 11 54 1030
26 16:00 北北東 5 10km以上 11 54 1030
26 15:30 北東 5 10km以上 11 50 1030
26 15:00 北北東 5 10km以上 11 54 1030
26 14:30 北東 6 10km以上 11 54 1030
26 14:00 北東 6 10km以上 11 54 1030
UACC 280800Z 33003MPS 290V020 CAVOK 13/M00 Q1030 R04/0///70 NOSIG RMK QFE740/0987
UACC 280730Z 36004MPS 320V030 CAVOK 13/00 Q1030 R04/0///70 NOSIG RMK QFE740/0987
UACC 280700Z 34003MPS 280V020 CAVOK 13/00 Q1030 R04/0///70 NOSIG RMK QFE740/0987
UACC 280630Z 32003MPS 270V020 CAVOK 12/M00 Q1030 R04/0///70 NOSIG RMK QFE741/0988
UACC 280600Z 33003MPS 270V030 CAVOK 12/01 Q1030 R04/0///70 NOSIG RMK QFE741/0988
UACC 280530Z 29002MPS CAVOK 11/01 Q1030 R04/0///70 NOSIG RMK QFE741/0988
UACC 280500Z 27002MPS 200V350 CAVOK 11/01 Q1031 R04/0///70 NOSIG RMK QFE741/0988
UACC 280430Z 29002MPS 220V340 CAVOK 09/02 Q1031 R04/0///70 NOSIG RMK QFE741/0988
UACC 280400Z VRB01MPS 8000 NSC 07/02 Q1031 R04/0///70 NOSIG RMK QFE741/0988
UACC 280330Z VRB01MPS 5000 BR NSC 06/01 Q1031 R04/0///70 NOSIG RMK QFE741/0988
UACC 280300Z 27001MPS 2100 BR NSC 04/01 Q1031 R04/0///70 NOSIG RMK QFE741/0988
UACC 280230Z VRB01MPS 1500 R04/1500N BR NSC 03/00 Q1031 R04/0///70 NOSIG RMK QFE741/0988
UACC 280200Z 25002MPS 1200 R04/1200 BR NSC M01/M02 Q1031 R04/0///70 NOSIG RMK QFE741/0988
UACC 280152Z 26002MPS 1500 R04/1500 BR NSC 00/M01 Q1030 R04/0///70 NOSIG RMK QFE741/0988
UACC 280130Z 27002MPS 0250 R04/0300D MIFG NSC M00/M01 Q1031 R04/0///70 NOSIG RMK QFE741/0988
UACC 280100Z 25002MPS 0900 R04/1300 MIFG NSC M02/M02 Q1031 R04/0///70 NOSIG RMK QFE741/0988
UACC 280030Z 25002MPS 2000 BR NSC M02/M03 Q1031 R04/0///70 NOSIG RMK QFE741/0988
UACC 280000Z 26002MPS 1000 R04/1900 BR NSC M01/M01 Q1031 R04/0///70 NOSIG RMK QFE741/0988
UACC 272330Z 28001MPS 1500 R04/2000 BR NSC M01/M02 Q1031 R04/0///70 NOSIG RMK QFE741/0988
UACC 272300Z 29001MPS 3700 BR NSC M01/M03 Q1031 R04/0///70 NOSIG RMK QFE741/0988
UACC 272230Z 27001MPS 3800 BR NSC M01/M02 Q1031 R04/0///70 NOSIG RMK QFE741/0988
UACC 272200Z 28001MPS 3000 BR NSC 01/M01 Q1030 R04/0///70 NOSIG RMK QFE741/0988
UACC 272130Z 00000MPS 4500 BR NSC 02/M01 Q1030 R04/0///70 NOSIG RMK QFE741/0988
UACC 272100Z 00000MPS 6000 NSC 02/M00 Q1031 R04/0///70 NOSIG RMK QFE741/0988
UACC 272030Z 00000MPS 6000 NSC 02/M00 Q1031 R04/0///70 NOSIG RMK QFE741/0988
UACC 272000Z 03001MPS CAVOK 02/M00 Q1031 R04/0///70 NOSIG RMK QFE741/0988
UACC 271930Z VRB01MPS CAVOK 02/M00 Q1031 R04/0///70 NOSIG RMK QFE741/0988
UACC 271900Z 08002MPS CAVOK 04/M00 Q1031 R04/0///70 NOSIG RMK QFE741/0988
UACC 271830Z 00000MPS CAVOK 03/00 Q1031 R04/0///70 NOSIG RMK QFE741/0988
UACC 271800Z 00000MPS 8000 NSC 03/00 Q1031 R04/0///70 NOSIG RMK QFE741/0988
UACC 271730Z 06001MPS CAVOK 03/M00 Q1031 R04/0///70 NOSIG RMK QFE741/0988
UACC 271700Z 00000MPS CAVOK 04/00 Q1031 R04/0///70 NOSIG RMK QFE741/0989
UACC 271630Z 04001MPS CAVOK 05/00 Q1031 R04/0///70 NOSIG RMK QFE741/0989
UACC 271600Z 04002MPS CAVOK 06/00 Q1031 R04/0///70 NOSIG RMK QFE741/0989
UACC 271530Z 02002MPS CAVOK 07/00 Q1031 R04/0///70 NOSIG RMK QFE741/0989
UACC 271500Z 03001MPS CAVOK 07/M00 Q1031 R04/0///70 NOSIG RMK QFE742/0989
UACC 271430Z 03002MPS CAVOK 07/00 Q1031 R04/0///70 NOSIG RMK QFE741/0989
UACC 271400Z 05003MPS CAVOK 07/M00 Q1031 R04/0///70 NOSIG RMK QFE741/0989
UACC 271330Z 05003MPS CAVOK 08/M00 Q1031 R04/0///70 NOSIG RMK QFE741/0989
UACC 271300Z 06003MPS CAVOK 09/M00 Q1031 R04/0///70 NOSIG RMK QFE741/0989
UACC 271230Z 04004MPS CAVOK 10/M00 Q1031 R04/0///70 NOSIG RMK QFE741/0988
UACC 271200Z 06004MPS CAVOK 11/M01 Q1031 R04/0///70 NOSIG RMK QFE741/0988
UACC 271130Z 04004MPS 010V070 9999 BKN046 12/M02 Q1031 R04/0///70 NOSIG RMK QFE741/0988
UACC 271100Z 05005MPS 9999 BKN046 11/M00 Q1031 R04/0///70 NOSIG RMK QFE741/0989
UACC 271030Z 03004MPS 350V070 9999 BKN046 11/00 Q1031 R04/0///70 NOSIG RMK QFE741/0989
UACC 271000Z 04005MPS 360V060 9999 BKN040 12/M00 Q1031 R04/0///70 NOSIG RMK QFE741/0989
UACC 270930Z 04005MPS 9999 BKN040 12/M01 Q1031 R04/0///70 NOSIG RMK QFE742/0989
UACC 270900Z 02005MPS 9999 BKN040 11/M01 Q1031 R04/0///70 NOSIG RMK QFE742/0989
UACC 270830Z 01005MPS 340V060 9999 BKN040 12/M00 Q1031 R04/0///70 NOSIG RMK QFE742/0989
UACC 270800Z 04006MPS 010V070 9999 BKN040 12/00 Q1032 R04/0///70 NOSIG RMK QFE742/0989
UACC 270730Z 03005MPS 9999 BKN040 11/01 Q1032 R04/0///70 NOSIG RMK QFE742/0989
UACC 270700Z 36006MPS 9999 BKN040 12/01 Q1032 R04/0///70 NOSIG RMK QFE742/0989
UACC 270630Z 02005MPS 350V070 9999 SCT040 11/01 Q1032 R04/0///70 NOSIG RMK QFE742/0989
UACC 270600Z 04005MPS 010V070 CAVOK 11/00 Q1032 R04/0///70 NOSIG RMK QFE742/0989
UACC 270530Z 05005MPS CAVOK 10/01 Q1032 R04/0///70 NOSIG RMK QFE742/0989
UACC 270500Z 04003MPS 010V070 CAVOK 10/03 Q1032 R04/0///70 NOSIG RMK QFE742/0989
UACC 270430Z 03002MPS CAVOK 08/03 Q1032 R04/0///70 NOSIG RMK QFE742/0989
UACC 270400Z 04002MPS 360V080 CAVOK 07/02 Q1032 R04/0///70 NOSIG RMK QFE742/0990
UACC 270330Z 04002MPS 010V080 CAVOK 05/02 Q1032 R04/0///70 NOSIG RMK QFE742/0990
UACC 270300Z 03003MPS CAVOK 04/02 Q1032 R04/0///70 NOSIG RMK QFE742/0989
UACC 270230Z 05002MPS 360V080 CAVOK 02/01 Q1032 R04/0///70 NOSIG RMK QFE742/0989
UACC 270200Z VRB01MPS CAVOK 01/M01 Q1032 R04/0///70 NOSIG RMK QFE742/0989
UACC 270130Z 04001MPS CAVOK 02/00 Q1031 R04/0///70 NOSIG RMK QFE742/0989
UACC 270100Z VRB01MPS 9000 NSC 02/01 Q1031 R04/0///70 NOSIG RMK QFE742/0989
UACC 270030Z VRB01MPS 9000 FEW046 02/01 Q1031 R04/0///70 NOSIG RMK QFE741/0989
UACC 270000Z VRB01MPS 9999 SCT043 02/01 Q1031 R04/0///70 NOSIG RMK QFE741/0989
UACC 262330Z VRB01MPS 9999 SCT043 01/00 Q1031 R04/0///70 NOSIG RMK QFE741/0989
UACC 262300Z 03002MPS 9999 SCT043 01/M00 Q1031 R04/0///70 NOSIG RMK QFE741/0989
UACC 262230Z 03003MPS 9999 SCT040 03/01 Q1031 R04/0///70 NOSIG RMK QFE741/0988
UACC 262200Z 03002MPS 9999 SCT040 02/01 Q1031 R04/0///70 NOSIG RMK QFE741/0988
UACC 262130Z 02003MPS 9999 BKN040 03/01 Q1031 R04/0///70 NOSIG RMK QFE741/0988
UACC 262100Z 01003MPS 9999 BKN040 04/02 Q1031 R04/0///70 NOSIG RMK QFE741/0988
UACC 262030Z 02003MPS 9999 BKN040 04/02 Q1031 R04/0///70 NOSIG RMK QFE741/0988
UACC 262000Z 02004MPS 9999 BKN040 04/02 Q1031 R04/0///70 TEMPO 3000 BR SCT005 RMK QFE741/0988
UACC 261930Z 03003MPS 9999 SCT043 04/02 Q1031 R04/0///70 TEMPO 3000 BR SCT005 RMK QFE741/0988
UACC 261900Z 02003MPS 350V050 9999 SCT043 04/02 Q1031 R04/0///70 TEMPO 3000 BR SCT005 RMK QFE741/0988
UACC 261830Z 02003MPS 9000 BKN043 04/02 Q1031 R04/0///70 TEMPO 3000 BR SCT005 RMK QFE741/0988
UACC 261800Z 02004MPS 8000 BKN043 05/02 Q1031 R04/0///70 TEMPO 3000 BR SCT005 RMK QFE741/0988
UACC 261730Z 02003MPS 5000 BR SCT046 05/02 Q1030 R04/0///70 TEMPO 3000 BR SCT005 RMK QFE741/0988
UACC 261700Z 02002MPS 5000 BR SCT046 05/02 Q1030 R04/0///70 TEMPO 3000 BR SCT005 RMK QFE741/0988
UACC 261630Z VRB01MPS 9999 BKN048 04/02 Q1030 R04/0///70 NOSIG RMK QFE741/0988
UACC 261600Z 00000MPS 9000 NSC 05/02 Q1030 R04/0///70 NOSIG RMK QFE741/0988
UACC 261530Z 04001MPS CAVOK 05/02 Q1030 R04/0///70 NOSIG RMK QFE741/0988
UACC 261500Z 02001MPS CAVOK 07/03 Q1030 R04/0///70 NOSIG RMK QFE741/0988
UACC 261430Z 03001MPS CAVOK 07/03 Q1030 R04/0///70 NOSIG RMK QFE741/0988
UACC 261400Z 04003MPS CAVOK 08/02 Q1031 R04/0///70 NOSIG RMK QFE741/0988
UACC 261330Z 05003MPS CAVOK 09/03 Q1031 R04/0///70 NOSIG RMK QFE741/0988
UACC 261300Z 04003MPS CAVOK 10/02 Q1030 R04/0///70 NOSIG RMK QFE741/0988
UACC 261230Z 04004MPS CAVOK 11/02 Q1030 R04/0///70 NOSIG RMK QFE741/0988
UACC 261200Z 04005MPS 9999 BKN046 11/02 Q1030 R04/0///70 NOSIG RMK QFE741/0988
UACC 261130Z 04005MPS 9999 BKN043 11/02 Q1030 R04/0///70 NOSIG RMK QFE741/0988
UACC 261100Z 02005MPS 350V050 9999 BKN043 11/02 Q1030 R04/0///70 NOSIG RMK QFE741/0988
UACC 261030Z 04005MPS 9999 SCT033 11/01 Q1030 R04/0///70 NOSIG RMK QFE740/0987
UACC 261000Z 03005MPS 350V080 9999 SCT033 11/02 Q1030 R04/0///70 NOSIG RMK QFE740/0987
UACC 260930Z 04006MPS 9999 SCT033 11/02 Q1030 R04/0///70 NOSIG RMK QFE741/0988
UACC 260900Z 04006MPS 9999 SCT033 11/02 Q1030 R04/0///70 NOSIG RMK QFE741/0988